Time;durP1;ratioP1;P1;durP2;ratioP2;P2;SDS_P1;SDS_P2;PMS_P1;PMS_P2;Temp;Humidity;BMP_temperature;BMP_pressure;BME280_temperature;BME280_humidity;BME280_pressure;Samples;Min_cycle;Max_cycle;Signal;HPM_P1;HPM_P2
2022/11/28 00:00:57;;;;;;;7.97;4.75;;;;;;;5.90;81.74;100527.94;5132523;28;20046;-74
2022/11/28 00:04:02;;;;;;;14.15;5.97;;;;;;;5.92;81.85;100526.16;5132723;28;20177;-74
2022/11/28 00:07:06;;;;;;;9.25;4.63;;;;;;;5.83;82.29;100532.47;5132314;28;20050;-74
2022/11/28 00:10:10;;;;;;;6.25;4.13;;;;;;;5.79;82.54;100531.75;5132242;28;20053;-74
2022/11/28 00:13:13;;;;;;;8.13;3.80;;;;;;;5.88;81.99;100545.31;5132246;28;20457;-74
2022/11/28 00:16:20;;;;;;;;;;;;;;;5.97;81.89;100537.28;5132817;28;20050;-74
2022/11/28 00:19:23;;;;;;;10.40;5.13;;;;;;;6.06;81.53;100536.94;5132289;28;20093;-74
2022/11/28 00:22:28;;;;;;;;;;;;;;;6.12;81.22;100535.91;5132495;28;20042;-73
2022/11/28 00:25:31;;;;;;;8.25;5.68;;;;;;;6.04;81.42;100536.16;5132144;28;20010;-73
2022/11/28 00:28:34;;;;;;;;;;;;;;;6.07;81.50;100536.06;5132776;28;20143;-73
2022/11/28 00:31:41;;;;;;;9.45;4.18;;;;;;;5.99;81.87;100527.66;5132257;28;20420;-73
2022/11/28 00:34:44;;;;;;;7.68;5.20;;;;;;;6.00;81.56;100529.38;5132001;28;20088;-73
2022/11/28 00:37:48;;;;;;;;;;;;;;;5.82;82.35;100520.41;5132541;28;20046;-73
2022/11/28 00:40:59;;;;;;;7.35;4.78;;;;;;;5.81;82.80;100514.38;5132160;28;19959;-73
2022/11/28 00:44:03;;;;;;;7.63;4.60;;;;;;;5.94;81.91;100514.00;5119401;28;20050;-74
2022/11/28 00:47:06;;;;;;;;;;;;;;;6.04;81.43;100518.84;5132648;28;20427;-75
2022/11/28 00:50:09;;;;;;;7.63;5.40;;;;;;;6.10;81.04;100514.34;5134615;27;20347;-75
2022/11/28 00:53:13;;;;;;;7.15;4.78;;;;;;;6.05;81.09;100514.50;5135537;27;20502;-75
2022/11/28 00:56:18;;;;;;;;;;;;;;;5.89;81.78;100510.69;5123647;27;20095;-75
2022/11/28 00:59:21;;;;;;;9.05;4.35;;;;;;;5.95;82.05;100510.50;5135487;27;20045;-75
2022/11/28 01:02:25;;;;;;;7.80;4.22;;;;;;;5.93;82.02;100504.50;5135518;27;20046;-74
2022/11/28 01:05:28;;;;;;;7.78;4.93;;;;;;;6.00;81.93;100504.28;5135396;27;20042;-75
2022/11/28 01:08:31;;;;;;;6.40;4.00;;;;;;;5.94;81.63;100499.28;5135275;27;20074;-75
2022/11/28 01:11:37;;;;;;;8.52;4.18;;;;;;;5.83;81.81;100501.34;5135273;27;20123;-74
2022/11/28 01:14:41;;;;;;;5.22;3.63;;;;;;;5.81;82.05;100505.75;5134929;27;20070;-74
2022/11/28 01:17:44;;;;;;;;;;;;;;;5.70;82.51;100498.31;5135766;27;20049;-74
2022/11/28 01:20:47;;;;;;;6.28;4.13;;;;;;;5.65;83.08;100491.56;5134831;27;20035;-74
2022/11/28 01:23:51;;;;;;;7.63;3.90;;;;;;;5.74;82.56;100486.94;5135258;27;20118;-73
2022/11/28 01:26:54;;;;;;;6.75;4.15;;;;;;;5.79;82.61;100487.63;5122301;27;20608;-73
2022/11/28 01:29:57;;;;;;;;;;;;;;;5.81;82.65;100491.03;5135484;27;20042;-74
2022/11/28 01:33:00;;;;;;;6.47;3.78;;;;;;;5.64;83.11;100490.72;5134888;27;19960;-74
2022/11/28 01:36:04;;;;;;;;;;;;;;;5.59;83.25;100477.06;5135532;27;20160;-74
2022/11/28 01:39:07;;;;;;;7.88;4.07;;;;;;;5.77;83.03;100466.06;5134914;27;20418;-74
2022/11/28 01:42:18;;;;;;;5.85;3.63;;;;;;;5.75;82.67;100465.28;5122084;27;20510;-74
2022/11/28 01:45:30;;;;;;;9.55;4.05;;;;;;;5.74;82.64;100445.44;5134674;27;20523;-74
2022/11/28 01:48:38;;;;;;;7.60;4.20;;;;;;;5.81;82.76;100439.13;5134547;27;20061;-74
2022/11/28 01:51:46;;;;;;;6.30;4.07;;;;;;;5.79;82.73;100433.13;5134567;27;20130;-74
2022/11/28 01:54:54;;;;;;;7.32;4.72;;;;;;;5.78;83.07;100430.63;5134413;27;20057;-74
2022/11/28 01:57:58;;;;;;;9.88;4.90;;;;;;;5.76;83.00;100447.97;5121929;27;20259;-74
2022/11/28 02:01:02;;;;;;;5.70;3.90;;;;;;;5.70;83.71;100463.72;5133948;27;20408;-75
2022/11/28 02:04:06;;;;;;;6.80;4.43;;;;;;;5.75;82.65;100452.31;5134065;27;20122;-74
2022/11/28 02:07:09;;;;;;;;;;;;;;;5.73;83.09;100435.94;5134564;27;20459;-74
2022/11/28 02:10:16;;;;;;;;;;;;;;;5.69;83.68;100416.19;5134747;27;20314;-74
2022/11/28 02:13:46;;;;;;;7.43;3.70;;;;;;;5.75;83.66;100426.38;5134270;27;19984;-75
2022/11/28 02:17:00;;;;;;;7.93;4.07;;;;;;;5.81;82.65;100425.31;5133919;27;20190;-75
2022/11/28 02:20:47;;;;;;;6.63;3.92;;;;;;;5.76;82.67;100414.25;5134038;27;20108;-75
2022/11/28 02:23:53;;;;;;;7.57;3.78;;;;;;;5.80;82.63;100402.84;5134023;27;20038;-75
2022/11/28 02:27:15;;;;;;;6.03;3.97;;;;;;;5.95;82.56;100398.91;5133935;27;20046;-74
2022/11/28 02:30:51;;;;;;;6.00;3.97;;;;;;;6.09;81.84;100399.25;5134108;27;20046;-75
2022/11/28 02:34:29;;;;;;;5.40;3.70;;;;;;;5.87;83.09;100393.09;5133639;27;20224;-75
2022/11/28 02:38:11;;;;;;;7.50;3.28;;;;;;;5.95;82.44;100396.31;5133881;27;20123;-74
2022/11/28 02:41:22;;;;;;;7.22;3.53;;;;;;;5.76;82.97;100393.50;5133586;27;20469;-73
2022/11/28 02:44:38;;;;;;;7.88;3.83;;;;;;;5.88;82.62;100382.69;5133806;27;20046;-73
2022/11/28 02:47:49;;;;;;;5.93;3.45;;;;;;;5.78;82.72;100379.56;5133404;27;20050;-73
2022/11/28 02:51:15;;;;;;;6.50;4.00;;;;;;;5.73;82.85;100385.81;5133311;27;20092;-74
2022/11/28 02:54:20;;;;;;;5.97;3.97;;;;;;;5.79;82.39;100385.59;5133474;27;20037;-74
2022/11/28 02:57:34;;;;;;;9.35;4.00;;;;;;;6.03;82.10;100396.88;5133419;27;20058;-74
2022/11/28 03:00:42;;;;;;;7.00;3.85;;;;;;;5.91;82.02;100381.72;5133444;27;20138;-74
2022/11/28 03:03:49;;;;;;;7.15;4.47;;;;;;;5.71;83.08;100378.09;5133002;27;20088;-74
2022/11/28 03:07:14;;;;;;;8.70;5.43;;;;;;;5.65;83.46;100378.31;5133028;27;20042;-74
2022/11/28 03:10:39;;;;;;;7.85;4.30;;;;;;;5.66;83.88;100368.75;5132782;27;20064;-74
2022/11/28 03:14:04;;;;;;;6.53;3.80;;;;;;;5.83;83.53;100375.03;5132686;27;20077;-74
2022/11/28 03:17:25;;;;;;;10.10;4.05;;;;;;;5.97;82.68;100369.41;5132974;27;20168;-74
2022/11/28 03:20:43;;;;;;;8.00;3.40;;;;;;;5.90;82.63;100367.88;5132891;27;20077;-74
2022/11/28 03:24:18;;;;;;;7.43;4.43;;;;;;;5.68;83.26;100357.44;5132870;27;20041;-74
2022/11/28 03:27:33;;;;;;;10.52;3.50;;;;;;;5.80;83.11;100351.78;5132898;27;20099;-73
2022/11/28 03:30:44;;;;;;;8.55;4.32;;;;;;;5.88;82.44;100345.50;5132532;27;20050;-73
2022/11/28 03:33:53;;;;;;;6.40;3.92;;;;;;;5.89;82.19;100336.81;5132981;27;20066;-73
2022/11/28 03:37:09;;;;;;;7.10;3.50;;;;;;;5.78;82.90;100338.06;5133001;28;20066;-74
2022/11/28 03:40:19;;;;;;;8.73;3.97;;;;;;;5.98;82.11;100334.75;5132751;28;20418;-74
2022/11/28 03:43:29;;;;;;;7.75;4.30;;;;;;;5.83;82.41;100323.16;5132692;28;20188;-74
2022/11/28 03:46:37;;;;;;;12.00;4.10;;;;;;;5.76;83.17;100323.44;5132863;28;20567;-74
2022/11/28 03:49:51;;;;;;;4.25;3.00;;;;;;;5.76;82.57;100316.50;5132574;28;20176;-74
2022/11/28 03:53:01;;;;;;;8.00;3.70;;;;;;;5.79;82.95;100307.75;5132700;28;20050;-74
2022/11/28 03:56:21;;;;;;;6.75;3.78;;;;;;;5.71;82.80;100308.03;5132643;28;20095;-74
2022/11/28 03:59:43;;;;;;;7.30;3.58;;;;;;;5.66;83.28;100301.31;5132338;28;20054;-74
2022/11/28 04:03:10;;;;;;;6.55;4.07;;;;;;;5.56;82.97;100306.84;5132237;28;20058;-74
2022/11/28 04:06:25;;;;;;;6.47;4.20;;;;;;;5.52;83.72;100309.56;5132359;28;20062;-74
2022/11/28 04:09:54;;;;;;;6.72;4.63;;;;;;;5.58;83.71;100309.34;5132751;28;20073;-74
2022/11/28 04:13:06;;;;;;;8.93;3.83;;;;;;;5.55;83.09;100309.47;5132278;28;20042;-75
2022/11/28 04:16:46;;;;;;;6.43;3.83;;;;;;;5.53;83.45;100309.53;5132246;28;20046;-74
2022/11/28 04:20:09;;;;;;;5.75;3.80;;;;;;;5.70;82.93;100321.91;5132249;28;20108;-75
2022/11/28 04:23:16;;;;;;;5.80;3.50;;;;;;;5.72;83.01;100321.88;5133619;27;20117;-74
2022/11/28 04:26:27;;;;;;;8.85;4.60;;;;;;;5.53;83.22;100322.50;5136505;27;20459;-74
2022/11/28 04:29:37;;;;;;;9.13;4.45;;;;;;;5.44;83.92;100325.41;5136284;27;20122;-74
2022/11/28 04:32:48;;;;;;;6.90;3.85;;;;;;;5.66;83.24;100311.69;5136389;27;20058;-75
2022/11/28 04:35:54;;;;;;;5.40;3.58;;;;;;;5.50;83.53;100312.22;5136153;27;20100;-74
2022/11/28 04:38:59;;;;;;;6.60;3.50;;;;;;;5.51;83.58;100315.66;5136049;27;20061;-73
2022/11/28 04:42:11;;;;;;;8.10;3.97;;;;;;;5.46;83.61;100315.00;5135968;27;20050;-72
2022/11/28 04:45:32;;;;;;;12.32;5.28;;;;;;;5.35;83.71;100320.53;5135876;27;20411;-72
2022/11/28 04:48:35;;;;;;;8.07;4.88;;;;;;;5.27;84.07;100323.41;5123138;27;20243;-74
2022/11/28 04:52:11;;;;;;;7.75;4.70;;;;;;;5.30;83.61;100322.44;5135889;27;20133;-75
2022/11/28 04:55:36;;;;;;;9.25;4.45;;;;;;;5.38;83.98;100323.03;5135627;27;20050;-76
2022/11/28 04:58:44;;;;;;;7.10;4.30;;;;;;;5.31;83.91;100324.13;5116191;27;20074;-75
2022/11/28 05:01:49;;;;;;;7.45;4.95;;;;;;;5.45;83.74;100318.47;5119041;27;20104;-77
2022/11/28 05:05:43;;;;;;;7.43;4.78;;;;;;;5.56;83.16;100312.00;5110279;28;20468;-75
2022/11/28 05:09:16;;;;;;;9.15;5.07;;;;;;;5.37;83.71;100310.97;5112755;27;20540;-75
2022/11/28 05:12:29;;;;;;;6.68;4.55;;;;;;;5.45;83.55;100302.91;5133260;27;20046;-76
2022/11/28 05:15:32;;;;;;;;;;;;;;;5.51;83.43;100307.88;5132088;27;20077;-77
2022/11/28 05:18:35;;;;;;;6.95;3.75;;;;;;;5.44;83.34;100302.06;5131089;27;20367;-78
2022/11/28 05:21:39;;;;;;;7.75;5.00;;;;;;;5.51;82.72;100303.53;5130046;27;20087;-78
2022/11/28 05:24:42;;;;;;;;;;;;;;;5.31;83.94;100306.81;5132217;27;20065;-76
2022/11/28 05:27:46;;;;;;;8.40;4.35;;;;;;;5.25;84.21;100306.19;5131828;27;20345;-79
2022/11/28 05:31:00;;;;;;;9.00;4.53;;;;;;;5.26;83.87;100303.53;5131803;27;20050;-76
2022/11/28 05:34:04;;;;;;;7.75;5.50;;;;;;;5.47;82.86;100296.78;5126902;27;20046;-76
2022/11/28 05:37:08;;;;;;;5.97;3.72;;;;;;;5.31;83.84;100296.47;5130168;27;20073;-74
2022/11/28 05:40:11;;;;;;;7.20;4.68;;;;;;;5.43;83.48;100299.53;5125343;27;20103;-78
2022/11/28 05:43:16;;;;;;;8.95;4.78;;;;;;;5.29;83.62;100293.06;5130093;27;20050;-74
2022/11/28 05:46:20;;;;;;;8.38;4.35;;;;;;;5.34;83.71;100293.75;5114781;27;20039;-73
2022/11/28 05:49:24;;;;;;;5.47;3.80;;;;;;;5.33;83.74;100302.44;5124988;27;20049;-74
2022/11/28 05:52:31;;;;;;;5.38;4.25;;;;;;;5.39;83.24;100300.53;5127051;27;20049;-74
2022/11/28 05:55:37;;;;;;;7.60;4.50;;;;;;;5.15;83.10;100310.84;5128690;27;20038;-75
2022/11/28 05:58:40;;;;;;;7.63;5.25;;;;;;;5.12;83.81;100321.31;5130126;27;20457;-74
2022/11/28 06:01:43;;;;;;;;;;;;;;;5.10;83.54;100323.09;5130961;27;20077;-74
2022/11/28 06:04:47;;;;;;;8.45;4.78;;;;;;;5.25;82.61;100326.94;5117254;27;20489;-75
2022/11/28 06:07:50;;;;;;;;;;;;;;;5.19;82.42;100324.53;5134364;27;20039;-74
2022/11/28 06:10:58;;;;;;;7.45;4.75;;;;;;;5.01;83.58;100320.78;5134656;27;19958;-74
2022/11/28 06:14:02;;;;;;;8.45;4.88;;;;;;;5.15;83.94;100320.38;5113476;27;20073;-75
2022/11/28 06:17:05;;;;;;;9.90;6.95;;;;;;;5.32;83.50;100318.88;5110408;27;20078;-74
2022/11/28 06:20:09;;;;;;;46.95;23.65;;;;;;;5.40;82.89;100323.81;5123602;27;20097;-73
2022/11/28 06:23:12;;;;;;;15.77;8.68;;;;;;;5.09;83.37;100326.59;5110636;27;20514;-75
2022/11/28 06:26:17;;;;;;;;;;;;;;;5.05;83.44;100327.59;5115243;27;20038;-74
2022/11/28 06:29:21;;;;;;;13.65;8.35;;;;;;;5.09;83.65;100327.44;5121781;27;19913;-74
2022/11/28 06:32:24;;;;;;;11.25;6.85;;;;;;;4.93;83.68;100327.97;5110538;27;20093;-74
2022/11/28 06:35:27;;;;;;;;;;;;;;;5.12;83.85;100329.09;5111719;27;20080;-72
2022/11/28 06:38:32;;;;;;;14.10;8.27;;;;;;;4.97;83.38;100326.97;5129445;27;19917;-71
2022/11/28 06:41:35;;;;;;;16.95;9.65;;;;;;;5.08;82.78;100330.09;5128103;27;20219;-74
2022/11/28 06:44:38;;;;;;;9.30;6.35;;;;;;;4.98;82.81;100329.53;5117484;27;20096;-71
2022/11/28 06:47:42;;;;;;;9.45;6.70;;;;;;;5.07;82.81;100333.56;5131537;27;20046;-71
2022/11/28 06:50:46;;;;;;;8.52;5.55;;;;;;;4.98;82.50;100331.25;5131379;27;20058;-73
2022/11/28 06:53:49;;;;;;;9.77;6.03;;;;;;;5.05;82.62;100335.38;5131311;27;20092;-72
2022/11/28 06:56:52;;;;;;;;;;;;;;;4.94;83.05;100317.56;5131662;27;20050;-70
2022/11/28 06:59:56;;;;;;;17.42;10.20;;;;;;;4.80;84.42;100327.53;5120369;27;19936;-70
2022/11/28 07:02:59;;;;;;;;;;;;;;;4.96;83.01;100327.88;5133908;27;20087;-71
2022/11/28 07:06:04;;;;;;;7.05;5.18;;;;;;;4.94;82.91;100342.63;5133266;27;20403;-71
2022/11/28 07:09:07;;;;;;;15.65;8.10;;;;;;;5.11;82.12;100333.41;5133087;27;20046;-70
2022/11/28 07:12:11;;;;;;;11.10;7.32;;;;;;;4.88;83.44;100329.00;5132856;27;20542;-71
2022/11/28 07:15:14;;;;;;;;;;;;;;;4.78;83.31;100322.38;5133219;27;20047;-70
2022/11/28 07:18:17;;;;;;;11.05;4.85;;;;;;;4.86;83.26;100333.34;5133143;27;19964;-70
2022/11/28 07:21:21;;;;;;;;;;;;;;;4.99;83.39;100336.41;5131784;27;20049;-70
2022/11/28 07:24:24;;;;;;;14.10;6.90;;;;;;;4.88;83.30;100341.94;5131289;27;20429;-71
2022/11/28 07:27:29;;;;;;;13.48;6.70;;;;;;;4.71;84.03;100341.59;5131291;27;20050;-71
2022/11/28 07:30:32;;;;;;;11.27;7.63;;;;;;;4.75;84.31;100344.94;5131499;27;20046;-71
2022/11/28 07:33:37;;;;;;;11.68;8.20;;;;;;;4.78;83.70;100348.28;5131611;27;20050;-70
2022/11/28 07:36:41;;;;;;;10.90;8.77;;;;;;;4.82;83.00;100344.72;5132665;28;20586;-71
2022/11/28 07:39:45;;;;;;;9.57;7.45;;;;;;;4.79;83.76;100350.00;5132682;28;20046;-70
2022/11/28 07:42:48;;;;;;;10.30;7.93;;;;;;;4.76;84.24;100354.44;5132666;28;20084;-70
2022/11/28 07:45:51;;;;;;;9.27;5.97;;;;;;;4.93;83.76;100346.13;5132701;28;20130;-69
2022/11/28 07:48:55;;;;;;;9.93;6.70;;;;;;;5.02;83.92;100344.09;5132588;28;20100;-69
2022/11/28 07:52:00;;;;;;;8.80;5.93;;;;;;;5.04;83.56;100338.84;5132501;28;20139;-69
2022/11/28 07:55:03;;;;;;;10.65;6.40;;;;;;;5.02;83.55;100335.47;5132474;28;20046;-69
2022/11/28 07:58:07;;;;;;;12.02;7.53;;;;;;;5.10;83.54;100343.81;5133989;27;20573;-69
2022/11/28 08:01:19;;;;;;;10.02;6.90;;;;;;;5.11;83.68;100346.38;5136844;27;20049;-72
2022/11/28 08:04:22;;;;;;;12.40;7.55;;;;;;;5.12;83.22;100342.88;5136552;27;20077;-69
2022/11/28 08:07:25;;;;;;;10.98;7.78;;;;;;;5.06;83.57;100329.28;5136909;27;20046;-68
2022/11/28 08:10:29;;;;;;;12.77;7.85;;;;;;;5.10;83.66;100338.63;5136641;27;20100;-67
2022/11/28 08:13:32;;;;;;;;;;;;;;;5.09;84.28;100331.78;5137104;27;20069;-68
2022/11/28 08:16:39;;;;;;;9.52;7.13;;;;;;;4.89;84.41;100322.91;5136563;27;19922;-69
2022/11/28 08:19:43;;;;;;;13.32;7.13;;;;;;;4.51;87.81;100328.44;5136704;27;20086;-77
2022/11/28 08:22:46;;;;;;;9.50;6.03;;;;;;;4.33;88.52;100315.13;5136486;27;20041;-80
2022/11/28 08:25:49;;;;;;;8.35;5.63;;;;;;;4.52;87.84;100324.94;5136345;27;20518;-83
2022/11/28 08:28:54;;;;;;;8.77;5.57;;;;;;;4.80;85.49;100325.78;5123757;27;20403;-73
2022/11/28 08:31:57;;;;;;;13.10;7.30;;;;;;;4.29;87.73;100330.81;5136292;27;20046;-75
2022/11/28 08:35:01;;;;;;;10.52;8.70;;;;;;;4.98;85.15;100318.31;5136028;27;20048;-71
2022/11/28 08:38:04;;;;;;;11.68;8.82;;;;;;;5.13;84.60;100320.41;5136125;27;20092;-71
2022/11/28 08:41:13;;;;;;;15.88;11.80;;;;;;;5.24;83.13;100320.91;5136174;27;20181;-71
2022/11/28 08:44:17;;;;;;;17.77;10.38;;;;;;;5.36;83.00;100320.50;5136105;27;20401;-71
2022/11/28 08:47:23;;;;;;;;;;;;;;;5.43;82.72;100322.88;5136719;27;20058;-71
2022/11/28 08:50:26;;;;;;;10.35;7.20;;;;;;;5.47;82.48;100314.94;5135793;27;19918;-73
2022/11/28 08:53:30;;;;;;;10.15;6.45;;;;;;;5.53;83.42;100316.47;5135685;27;20539;-73
2022/11/28 08:56:34;;;;;;;11.20;7.95;;;;;;;5.54;83.40;100313.81;5131536;27;20049;-73
2022/11/28 08:59:38;;;;;;;9.82;8.25;;;;;;;5.44;83.81;100317.63;5130298;27;20073;-73
2022/11/28 09:02:41;;;;;;;8.90;6.57;;;;;;;5.42;83.50;100313.38;5122069;27;20096;-73
2022/11/28 09:05:46;;;;;;;15.18;7.72;;;;;;;5.57;82.84;100318.88;5127267;27;20511;-73
2022/11/28 09:08:50;;;;;;;11.57;8.30;;;;;;;5.70;82.35;100318.47;5110088;28;20047;-74
2022/11/28 09:11:54;;;;;;;11.27;7.78;;;;;;;5.66;82.18;100317.72;5111029;28;20043;-73
2022/11/28 09:14:57;;;;;;;11.98;8.07;;;;;;;5.55;82.33;100318.13;5128969;27;20153;-73
2022/11/28 09:18:00;;;;;;;;;;;;;;;5.71;82.51;100318.41;5127835;27;20092;-74
2022/11/28 09:21:08;;;;;;;9.30;6.10;;;;;;;5.81;82.51;100312.00;5111419;28;19918;-73
2022/11/28 09:24:12;;;;;;;8.35;5.75;;;;;;;5.84;81.05;100316.25;5111135;28;20046;-73
2022/11/28 09:27:15;;;;;;;9.30;6.93;;;;;;;5.94;80.92;100320.22;5121519;27;20045;-71
2022/11/28 09:30:21;;;;;;;9.18;7.97;;;;;;;5.75;80.89;100312.22;5110577;27;20424;-71
2022/11/28 09:33:24;;;;;;;9.93;8.32;;;;;;;6.00;79.85;100309.63;5109217;28;20123;-70
2022/11/28 09:36:28;;;;;;;;;;;;;;;5.98;80.86;100313.16;5109837;28;20124;-71
2022/11/28 09:39:31;;;;;;;10.05;7.20;;;;;;;6.07;80.72;100318.03;5113565;27;19980;-72
2022/11/28 09:42:42;;;;;;;;;;;;;;;6.12;80.34;100320.44;5131395;27;20041;-71
2022/11/28 09:45:49;;;;;;;16.67;10.70;;;;;;;6.23;79.55;100319.13;5112534;28;20379;-72
2022/11/28 09:48:56;;;;;;;31.88;20.25;;;;;;;6.32;79.10;100323.16;5113156;28;20197;-70
2022/11/28 09:52:52;;;;;;;25.70;16.67;;;;;;;6.20;79.74;100318.41;5113859;28;20118;-71
2022/11/28 09:55:59;;;;;;;23.20;15.05;;;;;;;6.19;80.37;100317.56;5113891;28;20047;-70
2022/11/28 09:59:04;;;;;;;20.63;11.88;;;;;;;6.24;78.97;100318.22;5114014;28;20046;-71
2022/11/28 10:02:17;;;;;;;18.27;13.02;;;;;;;6.25;79.10;100321.66;5114202;28;20100;-71
2022/11/28 10:05:32;;;;;;;21.83;16.70;;;;;;;6.26;79.83;100323.38;5113869;28;20569;-74
2022/11/28 10:08:55;;;;;;;16.27;10.65;;;;;;;6.10;80.65;100330.03;5113709;28;20054;-76
2022/11/28 10:12:28;;;;;;;10.13;8.02;;;;;;;6.08;81.35;100327.50;5111200;28;20335;-74
2022/11/28 10:15:43;;;;;;;7.20;5.65;;;;;;;6.14;81.97;100319.47;5111445;28;20050;-76
2022/11/28 10:18:58;;;;;;;9.20;6.15;;;;;;;6.27;81.55;100319.88;5111585;28;20097;-75
2022/11/28 10:22:06;;;;;;;10.50;6.80;;;;;;;6.28;82.14;100314.59;5098885;28;20050;-75
2022/11/28 10:25:34;;;;;;;9.90;6.47;;;;;;;6.28;83.51;100316.34;5111685;28;20042;-76
2022/11/28 10:28:42;;;;;;;9.40;7.03;;;;;;;6.51;82.82;100312.91;5113596;28;20099;-74
2022/11/28 10:31:48;;;;;;;7.85;6.15;;;;;;;6.38;82.35;100311.66;5113169;28;20047;-74
2022/11/28 10:35:00;;;;;;;12.68;10.20;;;;;;;6.46;81.30;100314.81;5113169;28;20097;-74
2022/11/28 10:38:10;;;;;;;15.27;11.48;;;;;;;6.43;82.42;100309.75;5113247;28;20200;-74
2022/11/28 10:41:27;;;;;;;10.93;9.20;;;;;;;6.40;84.05;100304.66;5113088;28;20051;-75
2022/11/28 10:44:43;;;;;;;12.05;8.60;;;;;;;6.50;82.89;100295.59;5113341;28;20119;-74
2022/11/28 10:48:09;;;;;;;10.32;8.45;;;;;;;6.59;82.66;100300.44;5111975;27;20428;-74
2022/11/28 10:51:30;;;;;;;13.55;8.70;;;;;;;6.52;82.82;100293.81;5116901;27;20114;-75
2022/11/28 10:54:37;;;;;;;9.27;7.68;;;;;;;6.55;83.18;100292.84;5120261;27;20062;-76
2022/11/28 10:57:40;;;;;;;13.85;8.88;;;;;;;6.59;82.98;100295.25;5126918;27;20126;-75
2022/11/28 11:00:48;;;;;;;11.35;7.93;;;;;;;6.70;81.99;100298.28;5128766;27;20523;-74
2022/11/28 11:03:51;;;;;;;9.02;7.25;;;;;;;6.66;82.67;100296.69;5128809;27;20411;-75
2022/11/28 11:07:10;;;;;;;9.90;7.38;;;;;;;6.74;83.48;100292.03;5126604;27;20173;-75
2022/11/28 11:10:16;;;;;;;9.15;7.47;;;;;;;6.70;84.32;100287.00;5126381;27;20038;-76
2022/11/28 11:13:25;;;;;;;8.65;7.07;;;;;;;6.17;86.54;100293.41;5127628;27;20042;-74
2022/11/28 11:16:47;;;;;;;10.32;7.93;;;;;;;6.04;88.94;100293.00;5127629;27;20045;-74
2022/11/28 11:19:51;;;;;;;10.15;7.22;;;;;;;6.41;87.64;100291.59;5125275;27;20091;-79
2022/11/28 11:22:56;;;;;;;9.68;7.68;;;;;;;6.55;87.13;100280.69;5127552;27;20070;-79
2022/11/28 11:26:00;;;;;;;11.63;7.97;;;;;;;6.64;86.86;100284.69;5128220;27;20057;-77
2022/11/28 11:29:04;;;;;;;10.52;8.27;;;;;;;6.78;85.21;100284.13;5128619;27;20057;-76
2022/11/28 11:32:20;;;;;;;12.10;8.05;;;;;;;6.75;85.15;100285.94;5127807;27;20534;-76
2022/11/28 11:35:27;;;;;;;10.50;8.18;;;;;;;6.79;85.89;100285.81;5128387;27;20087;-76
2022/11/28 11:38:34;;;;;;;11.43;7.15;;;;;;;6.79;86.31;100285.81;5117538;28;20432;-76
2022/11/28 11:41:40;;;;;;;13.57;8.65;;;;;;;6.88;85.52;100281.06;5112390;28;20125;-76
2022/11/28 11:44:44;;;;;;;10.38;8.18;;;;;;;6.83;84.11;100287.38;5109953;28;20097;-77
2022/11/28 11:47:47;;;;;;;13.70;9.60;;;;;;;6.72;83.93;100280.00;5111756;28;20097;-77
2022/11/28 11:50:54;;;;;;;;;;;;;;;6.69;84.74;100286.16;5111846;28;20051;-76
2022/11/28 11:54:13;;;;;;;13.32;10.13;;;;;;;6.75;84.64;100277.28;5112449;28;19919;-77
2022/11/28 11:57:17;;;;;;;12.05;9.02;;;;;;;6.57;87.33;100278.88;5112057;28;20050;-77
2022/11/28 12:00:47;;;;;;;11.52;8.10;;;;;;;6.69;87.76;100275.78;5112020;28;20043;-78
2022/11/28 12:04:05;;;;;;;11.32;8.43;;;;;;;6.71;88.58;100284.38;5111838;28;20043;-77
2022/11/28 12:07:22;;;;;;;10.20;8.45;;;;;;;6.88;88.39;100285.44;5112319;28;20185;-77
2022/11/28 12:10:34;;;;;;;12.77;8.40;;;;;;;6.98;87.68;100271.16;5111920;28;20046;-77
2022/11/28 12:13:38;;;;;;;11.38;8.80;;;;;;;6.96;87.63;100278.19;5112193;28;20127;-77
2022/11/28 12:16:44;;;;;;;;;;;;;;;6.97;87.06;100277.25;5112254;28;20039;-77
2022/11/28 12:20:03;;;;;;;13.65;9.98;;;;;;;6.90;87.91;100274.06;5111866;28;19966;-77
2022/11/28 12:23:25;;;;;;;14.80;9.45;;;;;;;6.93;88.06;100270.50;5116258;27;20066;-78
2022/11/28 12:27:19;;;;;;;11.13;8.98;;;;;;;6.87;88.46;100268.16;5127237;28;20050;-80
2022/11/28 12:30:40;;;;;;;9.05;8.07;;;;;;;6.94;88.18;100261.78;5124466;28;20455;-77
2022/11/28 12:34:40;;;;;;;9.98;7.80;;;;;;;6.95;88.74;100260.88;5093654;28;20543;-77
2022/11/28 12:37:53;;;;;;;10.77;8.18;;;;;;;7.10;88.95;100265.44;5027197;28;20161;-77
2022/11/28 12:41:11;;;;;;;10.05;8.65;;;;;;;7.13;88.30;100265.31;4685004;28;10000102;-77
2022/11/28 12:44:40;;;;;;;12.13;8.25;;;;;;;7.15;88.59;100255.69;5024422;28;20041;-77
2022/11/28 12:48:07;;;;;;;13.90;9.27;;;;;;;7.11;88.85;100263.69;5040962;28;20082;-77
2022/11/28 12:51:42;;;;;;;13.25;8.48;;;;;;;7.06;89.53;100258.69;5126632;27;20128;-74
2022/11/28 12:54:48;;;;;;;10.68;8.25;;;;;;;7.10;89.50;100251.59;5110567;28;20050;-80
2022/11/28 12:58:12;;;;;;;9.35;8.38;;;;;;;7.34;88.87;100253.16;5110502;28;20074;-79
2022/11/28 13:01:43;;;;;;;12.40;8.60;;;;;;;7.39;88.54;100247.75;5110453;28;20133;-74
2022/11/28 13:05:11;;;;;;;10.98;8.88;;;;;;;7.47;88.79;100250.88;5123056;27;20119;-74
2022/11/28 13:08:14;;;;;;;11.00;9.18;;;;;;;7.50;88.88;100245.53;5130358;27;20132;-74
2022/11/28 13:11:41;;;;;;;12.60;10.23;;;;;;;7.52;88.09;100251.50;5123728;27;20408;-75
2022/11/28 13:15:28;;;;;;;10.90;8.80;;;;;;;7.56;87.69;100241.78;5108752;28;20042;-71
2022/11/28 13:18:52;;;;;;;11.73;9.75;;;;;;;7.51;88.36;100249.81;5117240;27;20100;-72
2022/11/28 13:22:23;;;;;;;11.80;9.32;;;;;;;7.46;88.66;100242.19;5116817;27;20058;-72
2022/11/28 13:25:44;;;;;;;13.15;9.75;;;;;;;7.43;89.68;100239.75;5106776;27;20050;-71
2022/11/28 13:29:04;;;;;;;13.90;11.65;;;;;;;7.44;89.42;100241.44;5119245;27;20050;-72
2022/11/28 13:32:13;;;;;;;13.23;10.20;;;;;;;7.40;89.65;100245.09;5131197;27;20057;-71
2022/11/28 13:35:18;;;;;;;14.65;11.93;;;;;;;7.40;89.58;100241.63;5133901;27;20136;-71
2022/11/28 13:38:29;;;;;;;16.45;11.98;;;;;;;7.45;90.09;100239.69;5134306;27;20049;-71
2022/11/28 13:41:36;;;;;;;12.18;9.93;;;;;;;7.49;89.92;100230.81;5133228;27;20054;-71
2022/11/28 13:45:08;;;;;;;14.38;9.75;;;;;;;7.50;90.32;100237.72;5132564;27;20683;-73
2022/11/28 13:48:33;;;;;;;13.32;11.13;;;;;;;7.46;90.20;100238.75;5110759;28;20580;-71
2022/11/28 13:51:37;;;;;;;16.77;10.32;;;;;;;7.58;90.70;100240.81;5110572;28;20046;-72
2022/11/28 13:54:43;;;;;;;17.30;11.52;;;;;;;7.51;90.24;100236.81;5126660;27;20108;-72
2022/11/28 13:57:47;;;;;;;13.93;11.40;;;;;;;7.38;91.42;100243.47;5130329;27;20135;-71
2022/11/28 14:01:21;;;;;;;14.02;12.65;;;;;;;7.36;91.92;100245.28;5130415;27;20080;-72
2022/11/28 14:04:25;;;;;;;15.23;10.32;;;;;;;7.36;91.54;100251.31;5116796;27;20077;-74
2022/11/28 14:07:30;;;;;;;15.25;11.63;;;;;;;7.35;91.92;100254.84;5129068;27;20526;-74
2022/11/28 14:10:58;;;;;;;13.48;10.02;;;;;;;7.49;92.50;100256.00;5130010;27;20426;-74
2022/11/28 14:14:40;;;;;;;11.45;9.95;;;;;;;7.55;91.86;100245.31;5130089;27;20416;-73
2022/11/28 14:18:04;;;;;;;12.18;10.27;;;;;;;7.59;91.56;100252.91;5130506;27;20088;-72
2022/11/28 14:21:31;;;;;;;12.65;10.90;;;;;;;7.63;91.67;100249.28;5130306;27;20057;-73
2022/11/28 14:24:53;;;;;;;15.40;13.32;;;;;;;7.68;90.57;100249.91;5129903;27;20045;-72
2022/11/28 14:28:04;;;;;;;17.13;14.38;;;;;;;7.54;90.85;100244.47;5117053;27;20054;-73
2022/11/28 14:31:31;;;;;;;15.70;12.02;;;;;;;7.56;90.94;100245.28;5117232;27;20198;-73
2022/11/28 14:34:45;;;;;;;14.30;11.27;;;;;;;7.59;91.05;100257.28;5115892;27;20081;-72
2022/11/28 14:37:51;;;;;;;15.75;11.73;;;;;;;7.62;90.68;100257.13;5116314;27;20123;-72
2022/11/28 14:40:55;;;;;;;14.00;12.15;;;;;;;7.51;91.20;100260.22;5116361;27;20065;-72
2022/11/28 14:44:36;;;;;;;18.15;13.20;;;;;;;7.49;91.29;100262.03;5113218;27;20058;-73
2022/11/28 14:47:41;;;;;;;14.15;12.65;;;;;;;7.47;92.46;100269.09;5126583;27;20095;-73
2022/11/28 14:50:51;;;;;;;13.75;11.57;;;;;;;7.59;92.40;100271.13;5129275;27;20131;-76
2022/11/28 14:53:55;;;;;;;13.73;10.63;;;;;;;7.67;92.58;100276.84;5125431;27;20046;-71
2022/11/28 14:56:59;;;;;;;16.20;10.65;;;;;;;7.66;92.37;100274.34;5096471;28;20043;-74
2022/11/28 15:00:14;;;;;;;11.90;9.38;;;;;;;7.66;92.00;100275.16;4394057;28;10000662;-73